Time,TemperatureF,DewpointF,PressureIn,WindDirection,WindDirectionDegrees,WindSpeedMPH,WindSpeedGustMPH,Humidity,HourlyPrecipIn,Conditions,Clouds,dailyrainin,SolarRadiationWatts/m^2,SoftwareType,DateUTC
2013-03-06 00:01:00,51.0,18.0,-100.00,SSW,195,24.0,38.0,27,0.00,,,0.00,0.000000,,2013-03-06 08:01:00,
2013-03-06 00:11:00,51.0,18.0,-100.00,SSW,195,24.0,38.0,27,0.00,,,0.00,0.000000,,2013-03-06 08:11:00,
2013-03-06 00:21:00,51.0,18.0,-100.00,SSW,195,24.0,38.0,27,0.00,,,0.00,0.000000,,2013-03-06 08:21:00,
2013-03-06 00:52:00,50.0,16.0,-100.00,South,183,19.0,38.0,25,0.00,,,0.00,0.000000,,2013-03-06 08:52:00,
2013-03-06 01:01:00,50.0,16.0,-100.00,South,183,19.0,38.0,25,0.00,,,0.00,0.000000,,2013-03-06 09:01:00,
2013-03-06 01:12:00,50.0,16.0,-100.00,South,183,19.0,38.0,25,0.00,,,0.00,0.000000,,2013-03-06 09:12:00,
2013-03-06 01:21:00,50.0,16.0,-100.00,South,183,19.0,38.0,25,0.00,,,0.00,0.000000,,2013-03-06 09:21:00,
2013-03-06 01:52:00,50.0,15.0,-100.00,SSW,200,12.0,33.0,24,0.00,,,0.00,0.000000,,2013-03-06 09:52:00,
2013-03-06 02:01:00,50.0,15.0,-100.00,SSW,200,12.0,33.0,24,0.00,,,0.00,0.000000,,2013-03-06 10:01:00,
2013-03-06 02:11:00,50.0,15.0,-100.00,SSW,200,12.0,33.0,24,0.00,,,0.00,0.000000,,2013-03-06 10:11:00,
2013-03-06 02:21:00,50.0,15.0,-100.00,SSW,200,12.0,33.0,24,0.00,,,0.00,0.000000,,2013-03-06 10:21:00,
2013-03-06 02:52:00,44.0,21.0,-100.00,SE,145,7.0,22.0,40,0.00,,,0.00,0.000000,,2013-03-06 10:52:00,
2013-03-06 03:02:00,44.0,21.0,-100.00,SE,145,7.0,22.0,40,0.00,,,0.00,0.000000,,2013-03-06 11:02:00,
2013-03-06 03:11:00,44.0,21.0,-100.00,SE,145,7.0,22.0,40,0.00,,,0.00,0.000000,,2013-03-06 11:11:00,
2013-03-06 03:22:00,44.0,21.0,-100.00,SE,145,7.0,22.0,40,0.00,,,0.00,0.000000,,2013-03-06 11:22:00,
2013-03-06 03:52:00,46.0,21.0,-100.00,SW,223,19.0,35.0,37,0.00,,,0.00,0.000000,,2013-03-06 11:52:00,
2013-03-06 04:01:00,46.0,21.0,-100.00,SW,223,19.0,35.0,37,0.00,,,0.00,0.000000,,2013-03-06 12:01:00,
2013-03-06 04:11:00,46.0,21.0,-100.00,SW,223,19.0,35.0,37,0.00,,,0.00,0.000000,,2013-03-06 12:11:00,
2013-03-06 04:21:00,46.0,21.0,-100.00,SW,223,19.0,35.0,37,0.00,,,0.00,0.000000,,2013-03-06 12:21:00,
2013-03-06 04:52:00,46.0,23.0,-100.00,SW,228,17.0,39.0,40,0.00,,,0.00,0.000000,,2013-03-06 12:52:00,
2013-03-06 05:02:00,46.0,23.0,-100.00,SW,228,17.0,39.0,40,0.00,,,0.00,0.000000,,2013-03-06 13:02:00,
2013-03-06 05:11:00,46.0,23.0,-100.00,SW,228,17.0,39.0,40,0.00,,,0.00,0.000000,,2013-03-06 13:11:00,
2013-03-06 05:21:00,46.0,23.0,-100.00,SW,228,17.0,39.0,40,0.00,,,0.00,0.000000,,2013-03-06 13:21:00,
2013-03-06 05:52:00,40.0,28.0,-100.00,SSW,203,3.0,10.0,63,0.00,,,0.00,0.000000,,2013-03-06 13:52:00,
2013-03-06 06:01:00,40.0,28.0,-100.00,SSW,203,3.0,10.0,63,0.00,,,0.00,0.000000,,2013-03-06 14:01:00,
2013-03-06 06:11:00,40.0,28.0,-100.00,SSW,203,3.0,10.0,63,0.00,,,0.00,0.000000,,2013-03-06 14:11:00,
2013-03-06 06:21:00,40.0,28.0,-100.00,SSW,203,3.0,10.0,63,0.00,,,0.00,0.000000,,2013-03-06 14:21:00,
2013-03-06 06:52:00,40.0,29.0,-100.00,South,181,8.0,14.0,65,0.00,,,0.00,1.000000,,2013-03-06 14:52:00,
2013-03-06 07:01:00,40.0,29.0,-100.00,South,181,8.0,14.0,65,0.00,,,0.00,1.000000,,2013-03-06 15:01:00,
2013-03-06 07:11:00,40.0,29.0,-100.00,South,181,8.0,14.0,65,0.00,,,0.00,1.000000,,2013-03-06 15:11:00,
2013-03-06 07:21:00,40.0,29.0,-100.00,South,181,8.0,14.0,65,0.00,,,0.00,1.000000,,2013-03-06 15:21:00,
2013-03-06 07:52:00,42.0,27.0,-100.00,SSW,194,6.0,12.0,55,0.00,,,0.00,127.000000,,2013-03-06 15:52:00,
2013-03-06 08:01:00,42.0,27.0,-100.00,SSW,194,6.0,12.0,55,0.00,,,0.00,127.000000,,2013-03-06 16:01:00,
2013-03-06 08:11:00,42.0,27.0,-100.00,SSW,194,6.0,12.0,55,0.00,,,0.00,127.000000,,2013-03-06 16:11:00,
2013-03-06 08:21:00,42.0,27.0,-100.00,SSW,194,6.0,12.0,55,0.00,,,0.00,127.000000,,2013-03-06 16:21:00,
2013-03-06 08:52:00,48.0,27.0,-100.00,SE,135,5.0,11.0,44,0.00,,,0.00,361.000000,,2013-03-06 16:52:00,
2013-03-06 09:01:00,48.0,27.0,-100.00,SE,135,5.0,11.0,44,0.00,,,0.00,361.000000,,2013-03-06 17:01:00,
2013-03-06 09:11:00,48.0,27.0,-100.00,SE,135,5.0,11.0,44,0.00,,,0.00,361.000000,,2013-03-06 17:11:00,
2013-03-06 09:21:00,48.0,27.0,-100.00,SE,135,5.0,11.0,44,0.00,,,0.00,361.000000,,2013-03-06 17:21:00,
2013-03-06 09:26:00,49.0,27.0,-100.00,NE,51,9.0,20.0,43,0.00,,,0.00,386.000000,,2013-03-06 17:26:00,
2013-03-06 09:52:00,49.0,27.0,-100.00,NE,51,9.0,20.0,43,0.00,,,0.00,386.000000,,2013-03-06 17:52:00,
2013-03-06 10:01:00,49.0,27.0,-100.00,NE,51,9.0,20.0,43,0.00,,,0.00,386.000000,,2013-03-06 18:01:00,
2013-03-06 10:52:00,57.0,26.0,-100.00,SSW,201,13.0,29.0,30,0.00,,,0.00,603.000000,,2013-03-06 18:52:00,
2013-03-06 11:02:00,57.0,26.0,-100.00,SSW,201,13.0,29.0,30,0.00,,,0.00,603.000000,,2013-03-06 19:02:00,
2013-03-06 11:11:00,57.0,26.0,-100.00,SSW,201,13.0,29.0,30,0.00,,,0.00,603.000000,,2013-03-06 19:11:00,
2013-03-06 11:21:00,57.0,26.0,-100.00,SSW,201,13.0,29.0,30,0.00,,,0.00,603.000000,,2013-03-06 19:21:00,
2013-03-06 11:53:00,58.0,22.0,-100.00,West,273,12.0,34.0,25,0.00,,,0.00,934.000000,,2013-03-06 19:53:00,
2013-03-06 12:01:00,58.0,22.0,-100.00,West,273,12.0,34.0,25,0.00,,,0.00,934.000000,,2013-03-06 20:01:00,
2013-03-06 12:11:00,58.0,22.0,-100.00,West,273,12.0,34.0,25,0.00,,,0.00,934.000000,,2013-03-06 20:11:00,
2013-03-06 12:21:00,58.0,22.0,-100.00,West,273,12.0,34.0,25,0.00,,,0.00,934.000000,,2013-03-06 20:21:00,
2013-03-06 12:52:00,56.0,19.0,-100.00,WNW,282,16.0,41.0,23,0.00,,,0.00,1046.000000,,2013-03-06 20:52:00,
2013-03-06 13:02:00,56.0,19.0,-100.00,WNW,282,16.0,41.0,23,0.00,,,0.00,1046.000000,,2013-03-06 21:02:00,
2013-03-06 13:11:00,56.0,19.0,-100.00,WNW,282,16.0,41.0,23,0.00,,,0.00,1046.000000,,2013-03-06 21:11:00,
2013-03-06 13:21:00,56.0,19.0,-100.00,WNW,282,16.0,41.0,23,0.00,,,0.00,1046.000000,,2013-03-06 21:21:00,
2013-03-06 13:52:00,57.0,15.0,-100.00,West,281,13.0,29.0,19,0.00,,,0.00,981.000000,,2013-03-06 21:52:00,
2013-03-06 14:01:00,57.0,15.0,-100.00,West,281,13.0,29.0,19,0.00,,,0.00,981.000000,,2013-03-06 22:01:00,
2013-03-06 14:11:00,57.0,15.0,-100.00,West,281,13.0,29.0,19,0.00,,,0.00,981.000000,,2013-03-06 22:11:00,
2013-03-06 14:21:00,57.0,15.0,-100.00,West,281,13.0,29.0,19,0.00,,,0.00,981.000000,,2013-03-06 22:21:00,
2013-03-06 14:52:00,56.0,13.0,-100.00,West,277,11.0,32.0,18,0.00,,,-99.99,919.000000,,2013-03-06 22:52:00,
2013-03-06 15:52:00,54.0,15.0,-100.00,WNW,288,15.0,31.0,21,0.00,,,0.00,743.000000,,2013-03-06 23:52:00,
2013-03-06 16:01:00,54.0,15.0,-100.00,WNW,288,15.0,31.0,21,0.00,,,0.00,743.000000,,2013-03-07 00:01:00,
2013-03-06 16:11:00,54.0,15.0,-100.00,WNW,288,15.0,31.0,21,0.00,,,0.00,743.000000,,2013-03-07 00:11:00,
2013-03-06 16:21:00,54.0,15.0,-100.00,WNW,288,15.0,31.0,21,0.00,,,0.00,743.000000,,2013-03-07 00:21:00,
2013-03-06 16:52:00,55.0,20.0,-100.00,SSW,205,16.0,26.0,25,0.00,,,0.00,438.000000,,2013-03-07 00:52:00,
2013-03-06 17:01:00,55.0,20.0,-100.00,SSW,205,16.0,26.0,25,0.00,,,0.00,438.000000,,2013-03-07 01:01:00,
2013-03-06 17:11:00,55.0,20.0,-100.00,SSW,205,16.0,26.0,25,0.00,,,0.00,438.000000,,2013-03-07 01:11:00,
2013-03-06 17:21:00,55.0,20.0,-100.00,SSW,205,16.0,26.0,25,0.00,,,0.00,438.000000,,2013-03-07 01:21:00,
2013-03-06 17:52:00,51.0,24.0,-100.00,SSW,210,22.0,34.0,34,0.00,,,0.00,142.000000,,2013-03-07 01:52:00,
2013-03-06 18:01:00,51.0,24.0,-100.00,SSW,210,22.0,34.0,34,0.00,,,0.00,142.000000,,2013-03-07 02:01:00,
2013-03-06 18:11:00,51.0,24.0,-100.00,SSW,210,22.0,34.0,34,0.00,,,0.00,142.000000,,2013-03-07 02:11:00,
2013-03-06 18:21:00,51.0,24.0,-100.00,SSW,210,22.0,34.0,34,0.00,,,0.00,142.000000,,2013-03-07 02:21:00,
2013-03-06 19:01:00,48.0,20.0,-100.00,West,274,31.0,50.0,32,0.00,,,0.00,13.000000,,2013-03-07 03:01:00,
2013-03-06 19:11:00,48.0,20.0,-100.00,West,274,31.0,50.0,32,0.00,,,0.00,13.000000,,2013-03-07 03:11:00,
2013-03-06 19:21:00,48.0,20.0,-100.00,West,274,31.0,50.0,32,0.00,,,0.00,13.000000,,2013-03-07 03:21:00,
2013-03-06 19:52:00,48.0,16.0,-100.00,WNW,288,32.0,56.0,28,0.00,,,0.00,0.000000,,2013-03-07 03:52:00,
2013-03-06 20:01:00,48.0,16.0,-100.00,WNW,288,32.0,56.0,28,0.00,,,0.00,0.000000,,2013-03-07 04:01:00,
2013-03-06 20:11:00,48.0,16.0,-100.00,WNW,288,32.0,56.0,28,0.00,,,0.00,0.000000,,2013-03-07 04:11:00,
2013-03-06 20:21:00,48.0,16.0,-100.00,WNW,288,32.0,56.0,28,0.00,,,0.00,0.000000,,2013-03-07 04:21:00,
2013-03-06 20:52:00,49.0,15.0,-100.00,NW,311,26.0,55.0,25,0.00,,,0.00,0.000000,,2013-03-07 04:52:00,
2013-03-06 21:01:00,49.0,15.0,-100.00,NW,311,26.0,55.0,25,0.00,,,0.00,0.000000,,2013-03-07 05:01:00,
2013-03-06 21:12:00,49.0,15.0,-100.00,NW,311,26.0,55.0,25,0.00,,,0.00,0.000000,,2013-03-07 05:12:00,
2013-03-06 21:22:00,49.0,15.0,-100.00,NW,311,26.0,55.0,25,0.00,,,0.00,0.000000,,2013-03-07 05:22:00,
2013-03-06 21:52:00,49.0,10.0,-100.00,NNW,330,14.0,34.0,20,0.00,,,0.00,0.000000,,2013-03-07 05:52:00,
2013-03-06 22:11:00,49.0,10.0,-100.00,NNW,330,14.0,34.0,20,0.00,,,0.00,0.000000,,2013-03-07 06:11:00,
2013-03-06 22:21:00,49.0,10.0,-100.00,NNW,330,14.0,34.0,20,0.00,,,0.00,0.000000,,2013-03-07 06:21:00,
2013-03-06 22:52:00,48.0,10.0,-100.00,SW,222,17.0,29.0,21,0.00,,,0.00,0.000000,,2013-03-07 06:52:00,
2013-03-06 23:01:00,48.0,10.0,-100.00,SW,222,17.0,29.0,21,0.00,,,0.00,0.000000,,2013-03-07 07:01:00,
2013-03-06 23:11:00,48.0,10.0,-100.00,SW,222,17.0,29.0,21,0.00,,,0.00,0.000000,,2013-03-07 07:11:00,
2013-03-06 23:21:00,48.0,10.0,-100.00,SW,222,17.0,29.0,21,0.00,,,0.00,0.000000,,2013-03-07 07:21:00,
2013-03-06 23:52:00,48.0,12.0,-100.00,WSW,248,22.0,28.0,23,0.00,,,0.00,0.000000,,2013-03-07 07:52:00,